createdAt,value
2022-09-23T00:01:19.316Z,76.11
2022-09-23T00:03:47.099Z,75.68
2022-09-23T00:06:20.825Z,76.37
2022-09-23T00:08:49.713Z,76.50
2022-09-23T00:11:23.090Z,76.63
2022-09-23T00:13:55.170Z,76.66
2022-09-23T00:16:26.710Z,76.77
2022-09-23T00:18:53.369Z,77.14
2022-09-23T00:21:22.569Z,77.62
2022-09-23T00:23:50.047Z,77.29
2022-09-23T00:26:20.587Z,77.38
2022-09-23T00:28:48.765Z,77.65
2022-09-23T00:31:22.847Z,78.98
2022-09-23T00:34:00.373Z,78.96
2022-09-23T00:36:29.164Z,78.06
2022-09-23T00:38:55.973Z,77.65
2022-09-23T00:41:23.440Z,77.19
2022-09-23T00:43:58.286Z,76.81
2022-09-23T00:46:43.570Z,77.12
2022-09-23T00:49:22.656Z,76.75
2022-09-23T00:52:06.645Z,77.45
2022-09-23T00:54:33.953Z,77.91
2022-09-23T00:57:03.665Z,78.52
2022-09-23T00:59:30.262Z,77.67
2022-09-23T01:02:01.017Z,77.84
2022-09-23T01:04:30.164Z,77.32
2022-09-23T01:06:56.737Z,77.59
2022-09-23T01:09:25.199Z,78.13
2022-09-23T01:12:26.505Z,78.03
2022-09-23T01:15:08.507Z,77.50
2022-09-23T01:18:06.394Z,77.52
2022-09-23T01:21:23.701Z,77.79
2022-09-23T01:24:26.293Z,77.63
2022-09-23T01:27:09.914Z,77.31
2022-09-23T01:30:19.907Z,78.36
2022-09-23T01:33:08.102Z,78.06
2022-09-23T01:36:02.993Z,77.99
2022-09-23T01:38:42.365Z,77.86
2022-09-23T01:41:15.378Z,77.91
2022-09-23T01:44:04.992Z,77.75
2022-09-23T01:47:11.133Z,77.51
2022-09-23T01:50:00.541Z,77.22
2022-09-23T01:52:40.325Z,77.30
2022-09-23T01:55:35.369Z,76.78
2022-09-23T01:58:15.713Z,77.25
2022-09-23T02:00:58.854Z,77.88
2022-09-23T02:03:59.238Z,77.42
2022-09-23T02:06:36.197Z,77.86
2022-09-23T02:09:11.098Z,77.56
2022-09-23T02:11:42.006Z,77.58
2022-09-23T02:14:25.304Z,77.41
2022-09-23T02:16:56.948Z,77.31
2022-09-23T02:19:47.881Z,77.29
2022-09-23T02:22:29.660Z,77.12
2022-09-23T02:24:57.942Z,77.75
2022-09-23T02:27:47.400Z,77.82
2022-09-23T02:30:31.684Z,78.28
2022-09-23T02:33:19.674Z,78.30
2022-09-23T02:35:56.080Z,77.96
2022-09-23T02:38:37.913Z,78.04
2022-09-23T02:41:23.519Z,77.23
2022-09-23T02:44:10.883Z,78.27
2022-09-23T02:46:38.514Z,77.69
2022-09-23T02:49:28.167Z,77.94
2022-09-23T02:51:56.489Z,77.48
2022-09-23T02:54:27.384Z,77.01
2022-09-23T02:56:55.226Z,77.65
2022-09-23T02:59:24.345Z,77.54
2022-09-23T03:02:04.482Z,77.98
2022-09-23T03:05:08.336Z,77.66
2022-09-23T03:08:07.132Z,77.34
2022-09-23T03:11:04.333Z,77.48
2022-09-23T03:14:24.863Z,77.21
2022-09-23T03:17:10.512Z,77.40
2022-09-23T03:19:55.918Z,76.98
2022-09-23T03:22:39.411Z,76.84
2022-09-23T03:25:15.924Z,77.92
2022-09-23T03:27:45.826Z,77.51
2022-09-23T03:30:14.325Z,77.51
2022-09-23T03:32:47.032Z,77.71
2022-09-23T03:35:14.626Z,77.68
2022-09-23T03:38:12.032Z,77.35
2022-09-23T03:40:47.711Z,77.53
2022-09-23T03:43:14.803Z,77.39
2022-09-23T03:45:42.605Z,77.36
2022-09-23T03:48:09.418Z,77.40
2022-09-23T03:50:39.139Z,77.23
2022-09-23T03:53:05.681Z,77.64
2022-09-23T03:55:32.432Z,77.82
2022-09-23T03:58:00.212Z,77.95
2022-09-23T04:00:27.714Z,77.95
2022-09-23T04:02:54.752Z,77.40
2022-09-23T04:05:21.313Z,77.28
2022-09-23T04:07:49.133Z,77.71
2022-09-23T04:10:15.976Z,77.71
2022-09-23T04:12:42.578Z,78.14
2022-09-23T04:15:09.848Z,78.95
2022-09-23T04:17:36.458Z,78.85
2022-09-23T04:20:04.027Z,79.15
2022-09-23T04:22:31.314Z,78.14
2022-09-23T04:24:57.936Z,78.58
2022-09-23T04:27:24.722Z,78.47
2022-09-23T04:29:51.421Z,78.32
2022-09-23T04:32:18.065Z,78.30
2022-09-23T04:34:44.660Z,78.04
2022-09-23T04:37:11.289Z,77.81
2022-09-23T04:39:37.923Z,78.18
2022-09-23T04:42:04.599Z,77.72
2022-09-23T04:44:31.269Z,78.17
2022-09-23T04:46:58.473Z,78.51
2022-09-23T04:49:26.180Z,78.13
2022-09-23T04:51:52.856Z,78.49
2022-09-23T04:54:19.956Z,78.24
2022-09-23T04:56:46.563Z,78.91
2022-09-23T04:59:13.202Z,79.07
2022-09-23T05:01:39.956Z,78.99
2022-09-23T05:04:11.587Z,78.50
2022-09-23T05:06:38.437Z,78.30
2022-09-23T05:09:08.098Z,78.28
2022-09-23T05:11:35.319Z,78.29
2022-09-23T05:14:02.197Z,77.87
2022-09-23T05:16:29.399Z,77.69
2022-09-23T05:18:57.902Z,78.46
2022-09-23T05:21:32.162Z,78.86
2022-09-23T05:24:00.885Z,78.36
2022-09-23T05:26:31.642Z,78.44
2022-09-23T05:28:59.728Z,78.61
2022-09-23T05:31:30.453Z,78.25
2022-09-23T05:34:03.809Z,77.95
2022-09-23T05:36:37.967Z,78.06
2022-09-23T05:39:07.733Z,77.75
2022-09-23T05:41:34.573Z,78.09
2022-09-23T05:44:02.163Z,77.68
2022-09-23T05:46:31.735Z,77.48
2022-09-23T05:49:03.089Z,77.81
2022-09-23T05:51:31.615Z,77.64
2022-09-23T05:54:00.173Z,77.87
2022-09-23T05:56:28.476Z,77.12
2022-09-23T05:58:58.526Z,76.81
2022-09-23T06:01:29.051Z,77.05
2022-09-23T06:03:57.940Z,77.13
2022-09-23T06:06:31.865Z,77.15
2022-09-23T06:09:00.124Z,77.31
2022-09-23T06:11:30.592Z,77.27
2022-09-23T06:14:00.967Z,77.85
2022-09-23T06:16:30.069Z,78.10
2022-09-23T06:18:58.862Z,77.94
2022-09-23T06:21:28.417Z,78.22
2022-09-23T06:23:57.270Z,77.52
2022-09-23T06:26:23.926Z,77.14
2022-09-23T06:28:50.456Z,77.32
2022-09-23T06:31:17.709Z,77.38
2022-09-23T06:33:46.257Z,77.22
2022-09-23T06:36:28.170Z,76.91
2022-09-23T06:39:02.300Z,76.58
2022-09-23T06:41:29.446Z,76.43
2022-09-23T06:43:56.035Z,75.87
2022-09-23T06:46:22.671Z,75.59
2022-09-23T06:48:51.094Z,75.28
2022-09-23T06:51:24.097Z,74.61
2022-09-23T06:53:50.765Z,74.42
2022-09-23T06:56:19.808Z,73.77
2022-09-23T06:58:54.836Z,74.76
2022-09-23T07:01:22.718Z,74.07
2022-09-23T07:03:49.818Z,72.97
2022-09-23T07:06:17.420Z,73.68
2022-09-23T07:08:49.221Z,73.17
2022-09-23T07:11:16.195Z,74.76
2022-09-23T07:13:43.189Z,74.27
2022-09-23T07:16:11.494Z,71.39
2022-09-23T07:18:39.163Z,73.03
2022-09-23T07:21:15.883Z,71.33
2022-09-23T07:23:47.771Z,72.94
2022-09-23T07:26:16.926Z,71.83
2022-09-23T07:28:44.147Z,71.43
2022-09-23T07:31:15.490Z,70.35
2022-09-23T07:33:44.089Z,72.08
2022-09-23T07:36:17.186Z,71.59
2022-09-23T07:38:47.352Z,70.81
2022-09-23T07:41:19.983Z,70.04
2022-09-23T07:43:47.627Z,70.65
2022-09-23T07:46:18.119Z,69.15
2022-09-23T07:48:46.132Z,69.11
2022-09-23T07:51:36.293Z,68.67
2022-09-23T07:54:05.331Z,68.47
2022-09-23T07:56:31.958Z,69.28
2022-09-23T07:59:03.141Z,67.92
2022-09-23T08:01:40.538Z,67.74
2022-09-23T08:04:29.823Z,66.42
2022-09-23T08:07:05.242Z,67.81
2022-09-23T08:09:41.395Z,65.73
2022-09-23T08:12:15.934Z,67.93
2022-09-23T08:14:43.163Z,64.85
2022-09-23T08:17:12.313Z,67.08
2022-09-23T08:19:38.903Z,64.63
2022-09-23T08:22:06.676Z,66.74
2022-09-23T08:24:33.309Z,64.90
2022-09-23T08:27:00.101Z,64.01
2022-09-23T08:29:26.979Z,62.26
2022-09-23T08:31:54.187Z,63.04
2022-09-23T08:34:22.764Z,63.49
2022-09-23T08:36:53.849Z,66.77
2022-09-23T08:39:22.756Z,63.65
2022-09-23T08:41:58.430Z,62.03
2022-09-23T08:44:48.215Z,63.03
2022-09-23T08:47:24.888Z,62.36
2022-09-23T08:50:06.502Z,60.74
2022-09-23T08:52:59.463Z,63.11
2022-09-23T08:55:46.156Z,63.73
2022-09-23T08:58:49.479Z,60.27
2022-09-23T09:01:47.922Z,62.36
2022-09-23T09:04:33.681Z,57.97
2022-09-23T09:07:35.788Z,59.67
2022-09-23T09:10:22.880Z,61.44
2022-09-23T09:13:04.953Z,57.27
2022-09-23T09:15:55.096Z,60.62
2022-09-23T09:18:25.066Z,57.38
2022-09-23T09:21:23.123Z,58.64
2022-09-23T09:24:03.784Z,57.20
2022-09-23T09:26:54.047Z,57.75
2022-09-23T09:29:36.179Z,57.70
2022-09-23T09:32:29.758Z,57.42
2022-09-23T09:35:20.759Z,55.93
2022-09-23T09:37:59.006Z,53.44
2022-09-23T09:40:30.776Z,56.35
2022-09-23T09:43:25.210Z,56.58
2022-09-23T09:46:22.789Z,54.67
2022-09-23T09:49:02.234Z,51.49
2022-09-23T09:51:52.722Z,50.97
2022-09-23T09:54:37.109Z,50.29
2022-09-23T09:58:00.509Z,51.13
2022-09-23T10:00:41.216Z,51.86
2022-09-23T10:06:33.049Z,49.21
2022-09-23T10:09:02.166Z,50.27
2022-09-23T10:11:37.694Z,48.82
2022-09-23T10:15:22.365Z,49.51
2022-09-23T10:17:41.952Z,47.82
2022-09-23T10:20:20.634Z,50.94
2022-09-23T10:26:40.433Z,47.91
2022-09-23T10:30:36.620Z,47.92
2022-09-23T10:35:44.925Z,46.66
2022-09-23T10:38:26.013Z,44.28
2022-09-23T10:41:50.495Z,47.14
2022-09-23T10:45:16.807Z,46.92
2022-09-23T10:49:55.230Z,44.69
2022-09-23T10:52:04.295Z,45.50
2022-09-23T10:57:12.313Z,44.59
2022-09-23T10:59:04.345Z,44.57
2022-09-23T11:02:19.184Z,42.67
2022-09-23T11:05:39.685Z,42.63
2022-09-23T11:08:38.809Z,45.07
2022-09-23T11:11:37.097Z,43.82
2022-09-23T12:10:59.963Z,43.53
2022-09-23T12:14:43.618Z,41.77
2022-09-23T12:21:57.601Z,37.91
2022-09-23T12:25:09.498Z,42.32
2022-09-23T12:27:58.857Z,41.52
2022-09-23T12:30:58.518Z,40.77
2022-09-23T12:33:36.591Z,40.11
2022-09-23T12:36:14.756Z,39.71
2022-09-23T12:38:51.775Z,38.74
2022-09-23T12:41:37.751Z,37.93
2022-09-23T12:47:28.265Z,40.25
2022-09-23T12:50:17.094Z,39.42
2022-09-23T12:52:55.401Z,40.31
2022-09-23T12:55:41.930Z,39.89
2022-09-23T12:59:54.369Z,38.97
2022-09-23T13:03:09.303Z,38.17
2022-09-23T13:09:07.165Z,37.72
2022-09-23T13:11:50.557Z,38.15
2022-09-23T13:14:53.010Z,40.78
2022-09-23T13:21:51.306Z,37.67
2022-09-23T13:24:55.211Z,42.78
2022-09-23T13:30:38.106Z,37.34
2022-09-23T14:24:40.855Z,29.69
2022-09-23T14:42:44.716Z,41.47
2022-09-23T14:45:50.327Z,39.08
2022-09-23T14:48:36.160Z,34.47
2022-09-23T14:51:16.964Z,36.84
2022-09-23T14:54:37.903Z,35.08
2022-09-23T14:56:58.531Z,41.81
2022-09-23T14:59:49.400Z,36.40
2022-09-23T15:02:45.582Z,35.32
2022-09-23T15:05:20.067Z,41.77
2022-09-23T15:08:00.668Z,40.16
2022-09-23T15:10:41.468Z,36.08
2022-09-23T15:13:23.820Z,37.01
2022-09-23T15:16:17.193Z,37.25
2022-09-23T15:19:02.143Z,39.87
2022-09-23T15:21:45.468Z,38.50
2022-09-23T15:24:47.669Z,39.54
2022-09-23T15:27:34.177Z,41.51
2022-09-23T15:30:15.714Z,41.16
2022-09-23T15:32:47.033Z,41.29
2022-09-23T15:35:26.625Z,40.56
2022-09-23T15:38:25.225Z,39.32
2022-09-23T15:40:55.115Z,41.95
2022-09-23T15:43:51.592Z,42.94
2022-09-23T15:46:34.959Z,38.89
2022-09-23T15:49:51.130Z,39.13
2022-09-23T15:52:24.198Z,40.31
2022-09-23T15:54:53.538Z,39.55
2022-09-23T15:57:30.651Z,40.58
2022-09-23T15:59:58.474Z,40.43
2022-09-23T16:02:37.104Z,41.64
2022-09-23T16:05:06.445Z,41.59
2022-09-23T16:07:47.211Z,41.04
2022-09-23T16:10:18.883Z,42.40
2022-09-23T16:12:45.812Z,43.49
2022-09-23T16:15:19.863Z,47.03
2022-09-23T16:17:52.522Z,43.26
2022-09-23T16:20:24.345Z,44.86
2022-09-23T16:23:24.875Z,43.62
2022-09-23T16:25:58.875Z,43.85
2022-09-23T16:28:27.920Z,45.63
2022-09-23T16:30:57.249Z,46.22
2022-09-23T16:33:23.956Z,46.82
2022-09-23T16:35:53.522Z,46.33
2022-09-23T16:38:21.054Z,46.99
2022-09-23T16:40:47.771Z,44.93
2022-09-23T16:43:14.465Z,44.36
2022-09-23T16:45:41.262Z,45.58
2022-09-23T16:48:07.941Z,47.46
2022-09-23T16:50:54.275Z,47.87
2022-09-23T16:53:29.847Z,49.71
2022-09-23T16:55:59.172Z,51.39
2022-09-23T16:58:48.621Z,47.71
2022-09-23T17:01:44.828Z,47.82
2022-09-23T17:04:13.211Z,49.87
2022-09-23T17:06:51.802Z,50.45
2022-09-23T17:09:21.680Z,48.99
2022-09-23T17:12:07.321Z,49.91
2022-09-23T17:14:39.932Z,49.75
2022-09-23T17:17:06.668Z,49.24
2022-09-23T17:19:36.876Z,51.19
2022-09-23T17:22:03.786Z,50.12
2022-09-23T17:24:30.434Z,50.48
2022-09-23T17:26:57.086Z,50.21
2022-09-23T17:29:29.837Z,49.11
2022-09-23T17:31:56.503Z,49.27
2022-09-23T17:34:24.121Z,50.47
2022-09-23T17:36:51.130Z,49.40
2022-09-23T17:39:17.959Z,51.90
2022-09-23T17:41:47.542Z,51.87
2022-09-23T17:44:16.195Z,52.21
2022-09-23T17:46:48.465Z,52.63
2022-09-23T17:49:27.468Z,53.08
2022-09-23T17:51:59.253Z,50.41
2022-09-23T17:54:28.491Z,49.87
2022-09-23T17:57:01.147Z,50.06
2022-09-23T18:00:02.765Z,51.47
2022-09-23T18:02:35.617Z,52.24
2022-09-23T18:05:06.939Z,50.91
2022-09-23T18:07:55.579Z,51.82
2022-09-23T18:10:22.243Z,52.85
2022-09-23T18:12:50.112Z,55.61
2022-09-23T18:15:19.946Z,55.35
2022-09-23T18:17:46.854Z,56.49
2022-09-23T18:20:15.391Z,57.55
2022-09-23T18:22:42.027Z,57.93
2022-09-23T18:25:28.551Z,59.21
2022-09-23T18:27:58.618Z,60.50
2022-09-23T18:30:25.555Z,60.57
2022-09-23T18:32:52.650Z,60.92
2022-09-23T18:35:19.917Z,60.76
2022-09-23T18:37:46.544Z,60.36
2022-09-23T18:40:14.793Z,61.38
2022-09-23T18:42:41.531Z,62.41
2022-09-23T18:45:10.343Z,63.05
2022-09-23T18:47:55.418Z,62.59
2022-09-23T18:50:43.664Z,62.69
2022-09-23T18:53:10.933Z,62.96
2022-09-23T18:55:38.943Z,64.12
2022-09-23T18:58:08.195Z,63.88
2022-09-23T19:00:35.085Z,64.80
2022-09-23T19:03:02.506Z,64.49
2022-09-23T19:05:29.457Z,65.18
2022-09-23T19:07:56.315Z,64.10
2022-09-23T19:10:23.104Z,64.70
2022-09-23T19:12:49.741Z,65.06
2022-09-23T19:15:16.528Z,65.15
2022-09-23T19:17:43.654Z,64.61
2022-09-23T19:20:11.551Z,66.04
2022-09-23T19:22:38.293Z,66.90
2022-09-23T19:25:06.709Z,67.11
2022-09-23T19:27:34.584Z,67.58
2022-09-23T19:30:01.243Z,67.82
2022-09-23T19:32:27.925Z,67.90
2022-09-23T19:34:54.595Z,67.46
2022-09-23T19:37:21.249Z,66.55
2022-09-23T19:39:48.170Z,67.48
2022-09-23T19:42:14.779Z,68.27
2022-09-23T19:44:41.398Z,68.74
2022-09-23T19:47:15.193Z,68.51
2022-09-23T19:49:41.842Z,67.80
2022-09-23T19:52:08.549Z,67.56
2022-09-23T19:54:35.118Z,66.73
2022-09-23T19:57:01.763Z,67.45
2022-09-23T19:59:28.373Z,67.73
2022-09-23T20:01:55.199Z,67.56
2022-09-23T20:04:23.277Z,67.96
2022-09-23T20:06:50.032Z,68.57
2022-09-23T20:09:17.015Z,68.85
2022-09-23T20:11:44.867Z,68.49
2022-09-23T20:14:11.892Z,68.74
2022-09-23T20:16:38.649Z,68.36
2022-09-23T20:19:05.845Z,68.39
2022-09-23T20:21:34.258Z,68.06
2022-09-23T20:24:07.517Z,68.12
2022-09-23T20:26:52.791Z,68.69
2022-09-23T20:29:19.581Z,69.57
2022-09-23T20:31:46.399Z,69.84
2022-09-23T20:34:13.679Z,69.32
2022-09-23T20:36:41.668Z,69.98
2022-09-23T20:39:10.422Z,69.77
2022-09-23T20:41:39.714Z,70.62
2022-09-23T20:44:15.985Z,70.62
2022-09-23T20:46:48.271Z,70.39
2022-09-23T20:49:19.277Z,70.87
2022-09-23T20:51:49.017Z,70.45
2022-09-23T20:54:19.150Z,70.80
2022-09-23T20:56:47.092Z,70.43
2022-09-23T20:59:14.866Z,70.63
2022-09-23T21:01:42.800Z,69.42
2022-09-23T21:04:11.068Z,69.94
2022-09-23T21:06:39.679Z,69.03
2022-09-23T21:09:07.196Z,70.30
2022-09-23T21:11:34.368Z,70.76
2022-09-23T21:14:01.436Z,70.17
2022-09-23T21:16:28.558Z,68.88
2022-09-23T21:18:55.656Z,68.57
2022-09-23T21:21:22.451Z,69.75
2022-09-23T21:23:50.829Z,70.26
2022-09-23T21:26:26.417Z,70.89
2022-09-23T21:28:58.699Z,71.59
2022-09-23T21:31:35.581Z,71.48
2022-09-23T21:34:07.985Z,72.04
2022-09-23T21:36:37.741Z,71.59
2022-09-23T21:39:07.048Z,71.75
2022-09-23T21:41:35.221Z,71.24
2022-09-23T21:44:04.415Z,71.96
2022-09-23T21:46:35.640Z,71.70
2022-09-23T21:49:05.115Z,72.13
2022-09-23T21:51:40.639Z,71.99
2022-09-23T21:54:14.139Z,72.10
2022-09-23T21:56:41.773Z,71.92
2022-09-23T21:59:09.080Z,72.84
2022-09-23T22:01:40.893Z,73.07
2022-09-23T22:04:15.714Z,73.51
2022-09-23T22:06:43.028Z,73.41
2022-09-23T22:09:15.613Z,72.77
2022-09-23T22:12:01.502Z,72.86
2022-09-23T22:14:29.470Z,72.52
2022-09-23T22:17:01.327Z,72.02
2022-09-23T22:19:34.982Z,72.25
2022-09-23T22:22:08.249Z,72.49
2022-09-23T22:24:34.907Z,73.18
2022-09-23T22:27:01.807Z,73.19
2022-09-23T22:29:46.843Z,71.83
2022-09-23T22:32:32.168Z,72.45
2022-09-23T22:34:59.222Z,74.02
2022-09-23T22:37:30.476Z,73.45
2022-09-23T22:39:57.533Z,73.79
2022-09-23T22:42:24.201Z,73.10
2022-09-23T22:44:51.640Z,73.39
2022-09-23T22:47:20.062Z,72.87
2022-09-23T22:49:49.116Z,72.90
2022-09-23T22:52:21.285Z,72.78
2022-09-23T22:54:48.154Z,71.82
2022-09-23T22:57:15.388Z,71.98
2022-09-23T22:59:48.271Z,72.22
2022-09-23T23:02:19.107Z,73.67
2022-09-23T23:04:50.894Z,72.94
2022-09-23T23:07:20.933Z,72.65
2022-09-23T23:09:52.252Z,73.67
2022-09-23T23:12:20.459Z,73.26
2022-09-23T23:14:49.414Z,74.13
2022-09-23T23:17:17.143Z,73.33
2022-09-23T23:19:43.894Z,73.35
2022-09-23T23:22:10.580Z,73.51
2022-09-23T23:24:37.446Z,73.11
2022-09-23T23:27:04.193Z,72.72
2022-09-23T23:29:31.392Z,72.49
2022-09-23T23:31:58.295Z,73.36
2022-09-23T23:34:25.244Z,73.55
2022-09-23T23:36:56.496Z,73.27
2022-09-23T23:39:25.116Z,72.17
2022-09-23T23:41:55.938Z,72.71
2022-09-23T23:44:25.417Z,73.59
2022-09-23T23:46:53.907Z,73.54
2022-09-23T23:49:21.500Z,74.05
2022-09-23T23:51:48.514Z,73.67
2022-09-23T23:54:15.758Z,73.40
2022-09-23T23:56:43.957Z,73.92
2022-09-23T23:59:10.746Z,73.79
